createdAt,value
2019-02-07T00:02:37.136Z,0.66
2019-02-07T00:05:41.588Z,0.18
2019-02-07T00:08:46.036Z,0.02
2019-02-07T00:11:50.505Z,-0.03
2019-02-07T00:14:55.231Z,-0.08
2019-02-07T00:17:59.777Z,-0.01
2019-02-07T00:21:04.232Z,0.26
2019-02-07T00:24:09.040Z,0.35
2019-02-07T00:27:13.612Z,0.52
2019-02-07T00:30:21.486Z,0.80
2019-02-07T00:33:25.986Z,0.84
2019-02-07T00:36:31.119Z,0.63
2019-02-07T00:39:35.561Z,0.56
2019-02-07T00:42:40.311Z,0.70
2019-02-07T00:45:45.007Z,0.63
2019-02-07T00:48:49.462Z,0.57
2019-02-07T00:51:54.264Z,0.48
2019-02-07T00:54:58.715Z,0.53
2019-02-07T00:58:03.226Z,0.41
2019-02-07T01:01:07.676Z,0.64
2019-02-07T01:04:12.371Z,0.51
2019-02-07T01:07:16.827Z,0.29
2019-02-07T01:10:30.109Z,0.41
2019-02-07T01:13:34.627Z,0.45
2019-02-07T01:16:39.253Z,0.46
2019-02-07T01:19:44.008Z,0.33
2019-02-07T01:22:49.350Z,0.18
2019-02-07T01:25:53.796Z,0.26
2019-02-07T01:28:58.241Z,0.23
2019-02-07T01:32:02.687Z,-0.14
2019-02-07T01:35:07.466Z,0.04
2019-02-07T01:38:11.917Z,-0.21
2019-02-07T01:41:16.375Z,-0.30
2019-02-07T01:44:20.828Z,-0.22
2019-02-07T01:47:25.283Z,-0.29
2019-02-07T01:50:29.745Z,-0.37
2019-02-07T01:53:34.200Z,-0.19
2019-02-07T01:56:38.678Z,-0.24
2019-02-07T01:59:43.141Z,-0.39
2019-02-07T02:02:48.193Z,-0.20
2019-02-07T02:05:52.646Z,-0.37
2019-02-07T02:08:57.094Z,-0.24
2019-02-07T02:12:01.632Z,-0.40
2019-02-07T02:15:09.599Z,-0.54
2019-02-07T02:18:14.084Z,-0.59
2019-02-07T02:21:18.548Z,-0.73
2019-02-07T02:27:29.976Z,-0.38
2019-02-07T02:30:36.533Z,-0.63
2019-02-07T02:33:41.276Z,-0.71
2019-02-07T02:36:45.727Z,-0.79
2019-02-07T02:39:50.182Z,-0.84
2019-02-07T02:42:54.931Z,-0.96
2019-02-07T02:45:59.395Z,-0.83
2019-02-07T02:49:03.866Z,-0.80
2019-02-07T02:52:08.714Z,-0.80
2019-02-07T02:55:15.042Z,-0.76
2019-02-07T02:58:19.509Z,-1.02
2019-02-07T03:01:25.877Z,-0.91
2019-02-07T03:04:37.728Z,-0.68
2019-02-07T03:07:43.813Z,-0.51
2019-02-07T03:10:48.397Z,-0.46
2019-02-07T03:14:10.842Z,-0.30
2019-02-07T03:17:26.480Z,-0.23
2019-02-07T03:20:48.988Z,-0.05
2019-02-07T03:23:59.101Z,-0.10
2019-02-07T03:27:05.447Z,-0.08
2019-02-07T03:30:30.481Z,0.01
2019-02-07T03:33:36.824Z,0.22
2019-02-07T03:36:49.022Z,0.09
2019-02-07T03:40:03.890Z,0.08
2019-02-07T03:43:15.899Z,-0.08
2019-02-07T03:46:25.072Z,-0.30
2019-02-07T03:49:34.012Z,-0.56
2019-02-07T03:52:42.681Z,-0.32
2019-02-07T03:56:00.940Z,-0.36
2019-02-07T03:59:10.229Z,-0.21
2019-02-07T04:02:32.663Z,-0.09
2019-02-07T04:05:40.218Z,-0.17
2019-02-07T04:08:46.304Z,-0.25
2019-02-07T04:12:08.594Z,-0.52
2019-02-07T04:15:29.824Z,-0.64
2019-02-07T04:18:39.078Z,-0.75
2019-02-07T04:21:51.466Z,-0.83
2019-02-07T04:25:13.716Z,-0.83
2019-02-07T04:28:25.617Z,-0.80
2019-02-07T04:31:34.657Z,-0.82
2019-02-07T04:34:56.790Z,-0.87
2019-02-07T04:38:05.316Z,-0.81
2019-02-07T04:41:26.441Z,-0.85
2019-02-07T04:44:33.137Z,-0.84
2019-02-07T04:47:57.432Z,-0.82
2019-02-07T04:51:03.510Z,-0.78
2019-02-07T04:54:20.149Z,-0.72
2019-02-07T04:57:29.403Z,-0.61
2019-02-07T05:00:39.619Z,-0.65
2019-02-07T05:03:48.650Z,-0.59
2019-02-07T05:07:00.415Z,-0.59
2019-02-07T05:10:14.439Z,-0.59
2019-02-07T05:13:32.552Z,-0.48
2019-02-07T05:16:43.717Z,-0.35
2019-02-07T05:19:59.041Z,-0.36
2019-02-07T05:23:17.336Z,-0.44
2019-02-07T05:26:29.031Z,-0.48
2019-02-07T05:29:50.409Z,-0.23
2019-02-07T05:32:56.525Z,-0.04
2019-02-07T05:36:11.947Z,-0.16
2019-02-07T05:39:20.443Z,-0.19
2019-02-07T05:42:29.173Z,-0.23
2019-02-07T05:45:35.260Z,-0.36
2019-02-07T05:48:48.998Z,-0.39
2019-02-07T05:51:59.464Z,-0.23
2019-02-07T05:55:13.107Z,-0.14
2019-02-07T05:58:21.863Z,-0.05
2019-02-07T06:01:37.509Z,0.31
2019-02-07T06:04:43.883Z,0.57
2019-02-07T06:07:56.847Z,0.50
2019-02-07T06:11:17.921Z,0.27
2019-02-07T06:14:39.050Z,0.01
2019-02-07T06:17:47.789Z,-0.03
2019-02-07T06:20:59.635Z,0.18
2019-02-07T06:24:15.056Z,0.12
2019-02-07T06:27:29.673Z,-0.03
2019-02-07T06:30:36.074Z,-0.16
2019-02-07T06:33:55.386Z,-0.24
2019-02-07T06:37:03.887Z,-0.27
2019-02-07T06:40:20.348Z,-0.34
2019-02-07T06:43:41.046Z,-0.34
2019-02-07T06:46:56.298Z,-0.36
2019-02-07T06:50:02.386Z,-0.26
2019-02-07T06:53:25.214Z,-0.22
2019-02-07T06:56:43.546Z,-0.17
2019-02-07T06:59:49.674Z,0.09
2019-02-07T07:02:53.898Z,0.24
2019-02-07T07:06:02.359Z,0.12
2019-02-07T07:09:29.577Z,0.07
2019-02-07T07:12:38.707Z,0.08
2019-02-07T07:15:46.000Z,0.02
2019-02-07T07:19:03.938Z,0.13
2019-02-07T07:22:25.263Z,0.11
2019-02-07T07:25:34.244Z,0.04
2019-02-07T07:28:40.883Z,0.06
2019-02-07T07:31:54.302Z,0.17
2019-02-07T07:35:16.861Z,0.22
2019-02-07T07:38:25.723Z,0.17
2019-02-07T07:41:35.727Z,0.12
2019-02-07T07:44:48.351Z,0.18
2019-02-07T07:47:57.415Z,0.20
2019-02-07T07:51:03.753Z,0.20
2019-02-07T07:54:10.128Z,0.23
2019-02-07T07:57:16.580Z,0.34
2019-02-07T08:00:21.129Z,0.43
2019-02-07T08:03:27.199Z,0.55
2019-02-07T08:06:33.857Z,0.65
2019-02-07T08:09:39.929Z,0.79
2019-02-07T08:12:58.473Z,0.84
2019-02-07T08:16:07.510Z,0.89
2019-02-07T08:19:16.399Z,1.04
2019-02-07T08:22:20.616Z,1.15
2019-02-07T08:25:29.383Z,1.24
2019-02-07T08:28:41.690Z,1.26
2019-02-07T08:31:55.207Z,1.30
2019-02-07T08:35:03.941Z,1.40
2019-02-07T08:38:10.023Z,1.46
2019-02-07T08:41:30.954Z,1.61
2019-02-07T08:44:37.030Z,1.83
2019-02-07T08:47:58.337Z,2.12
2019-02-07T08:51:02.488Z,2.26
2019-02-07T08:54:08.990Z,2.38
2019-02-07T08:57:27.136Z,2.39
2019-02-07T09:00:39.444Z,2.49
2019-02-07T09:04:01.993Z,2.64
2019-02-07T09:07:24.951Z,2.82
2019-02-07T09:10:47.187Z,3.04
2019-02-07T09:13:53.704Z,3.18
2019-02-07T09:17:00.341Z,3.23
2019-02-07T09:20:12.125Z,3.32
2019-02-07T09:23:35.023Z,3.37
2019-02-07T09:26:46.953Z,3.44
2019-02-07T09:30:08.797Z,3.51
2019-02-07T09:33:27.040Z,3.64
2019-02-07T09:36:36.005Z,3.71
2019-02-07T09:39:42.086Z,3.97
2019-02-07T09:43:00.413Z,4.05
2019-02-07T09:46:13.623Z,4.16
2019-02-07T09:49:26.262Z,4.24
2019-02-07T09:52:38.931Z,4.39
2019-02-07T09:55:45.863Z,4.43
2019-02-07T09:59:07.872Z,4.53
2019-02-07T10:02:13.940Z,4.64
2019-02-07T10:05:20.014Z,4.77
2019-02-07T10:08:41.327Z,4.77
2019-02-07T10:11:59.694Z,4.83
2019-02-07T10:15:23.969Z,4.79
2019-02-07T10:18:46.576Z,4.79
2019-02-07T10:21:58.986Z,4.76
2019-02-07T10:25:17.377Z,4.79
2019-02-07T10:28:35.736Z,4.72
2019-02-07T10:31:44.774Z,4.70
2019-02-07T10:35:06.819Z,4.66
2019-02-07T10:38:15.606Z,4.75
2019-02-07T10:41:38.280Z,4.72
2019-02-07T10:45:00.111Z,4.73
2019-02-07T10:48:24.096Z,4.79
2019-02-07T10:51:39.372Z,4.89
2019-02-07T10:55:01.511Z,4.88
2019-02-07T10:58:06.346Z,4.92
2019-02-07T11:01:22.271Z,4.95
2019-02-07T11:04:26.467Z,4.98
2019-02-07T11:07:50.641Z,5.04
2019-02-07T11:11:12.910Z,5.05
2019-02-07T11:14:21.651Z,5.09
2019-02-07T11:17:42.762Z,5.17
2019-02-07T11:21:00.508Z,5.19
2019-02-07T11:24:23.419Z,5.25
2019-02-07T11:27:45.690Z,5.33
2019-02-07T11:30:51.778Z,5.34
2019-02-07T11:34:06.898Z,5.31
2019-02-07T11:37:11.106Z,5.42
2019-02-07T11:40:23.697Z,5.35
2019-02-07T11:43:46.017Z,5.40
2019-02-07T11:47:04.987Z,5.42
2019-02-07T11:50:15.396Z,5.45
2019-02-07T11:53:24.737Z,5.43
2019-02-07T11:56:40.615Z,5.48
2019-02-07T11:59:49.465Z,5.53
2019-02-07T12:03:14.279Z,5.60
2019-02-07T12:06:29.410Z,5.75
2019-02-07T12:09:52.582Z,5.87
2019-02-07T12:13:02.780Z,5.97
2019-02-07T12:16:11.540Z,6.01
2019-02-07T12:19:23.578Z,6.04
2019-02-07T12:22:29.963Z,6.10
2019-02-07T12:25:47.888Z,6.08
2019-02-07T12:28:53.969Z,5.97
2019-02-07T12:32:16.309Z,5.89
2019-02-07T12:35:34.351Z,5.82
2019-02-07T12:38:46.423Z,5.77
2019-02-07T12:42:09.182Z,5.81
2019-02-07T12:45:32.121Z,5.81
2019-02-07T12:48:38.185Z,5.87
2019-02-07T12:51:44.285Z,5.86
2019-02-07T12:54:53.308Z,6.07
2019-02-07T12:58:09.264Z,6.12
2019-02-07T13:01:18.545Z,6.03
2019-02-07T13:04:25.843Z,6.07
2019-02-07T13:07:34.781Z,6.10
2019-02-07T13:10:46.321Z,6.14
2019-02-07T13:14:03.181Z,6.22
2019-02-07T13:17:12.712Z,6.09
2019-02-07T13:20:30.758Z,6.06
2019-02-07T13:23:52.668Z,6.11
2019-02-07T13:27:08.793Z,6.23
2019-02-07T13:30:35.564Z,6.27
2019-02-07T13:33:41.907Z,6.24
2019-02-07T13:37:02.962Z,6.26
2019-02-07T13:40:25.155Z,6.32
2019-02-07T13:43:47.262Z,6.43
2019-02-07T13:46:53.340Z,6.44
2019-02-07T13:50:15.500Z,6.57
2019-02-07T13:53:24.207Z,6.62
2019-02-07T13:56:33.267Z,6.70
2019-02-07T13:59:51.173Z,6.80
2019-02-07T14:02:57.254Z,6.86
2019-02-07T14:06:12.197Z,7.01
2019-02-07T14:09:18.275Z,7.43
2019-02-07T14:12:37.150Z,7.84
2019-02-07T14:15:43.216Z,7.98
2019-02-07T14:18:55.222Z,8.26
2019-02-07T14:22:07.115Z,8.48
2019-02-07T14:25:13.582Z,8.93
2019-02-07T14:28:29.352Z,9.32
2019-02-07T14:31:35.416Z,9.33
2019-02-07T14:34:47.342Z,9.24
2019-02-07T14:38:09.981Z,9.05
2019-02-07T14:41:19.527Z,8.85
2019-02-07T14:44:43.339Z,8.84
2019-02-07T14:47:48.040Z,8.87
2019-02-07T14:50:52.975Z,8.75
2019-02-07T14:54:00.601Z,8.70
2019-02-07T14:57:03.942Z,8.64
2019-02-07T15:00:15.786Z,8.69
2019-02-07T15:03:20.213Z,8.54
2019-02-07T15:06:24.639Z,8.52
2019-02-07T15:09:29.072Z,8.43
2019-02-07T15:12:33.523Z,8.33
2019-02-07T15:15:37.941Z,8.26
2019-02-07T15:18:42.716Z,8.17
2019-02-07T15:21:47.218Z,7.91
2019-02-07T15:24:51.973Z,7.79
2019-02-07T15:27:56.707Z,7.67
2019-02-07T15:31:01.125Z,7.55
2019-02-07T15:34:06.432Z,7.25
2019-02-07T15:37:11.201Z,7.19
2019-02-07T15:40:22.239Z,7.12
2019-02-07T15:43:27.216Z,6.93
2019-02-07T15:46:31.641Z,6.77
2019-02-07T15:49:36.578Z,6.70
2019-02-07T15:52:42.536Z,6.60
2019-02-07T15:55:47.690Z,6.60
2019-02-07T15:58:56.455Z,6.54
2019-02-07T16:02:02.932Z,6.48
2019-02-07T16:05:12.149Z,6.46
2019-02-07T16:08:16.615Z,6.43
2019-02-07T16:11:21.362Z,6.39
2019-02-07T16:14:25.806Z,6.49
2019-02-07T16:17:32.325Z,6.46
2019-02-07T16:20:36.518Z,6.50
2019-02-07T16:23:40.961Z,6.64
2019-02-07T16:26:46.778Z,6.72
2019-02-07T16:29:51.203Z,6.67
2019-02-07T16:32:55.631Z,6.65
2019-02-07T16:36:00.337Z,6.61
2019-02-07T16:39:07.824Z,6.61
2019-02-07T16:42:12.238Z,6.55
2019-02-07T16:45:22.996Z,6.49
2019-02-07T16:48:27.422Z,6.51
2019-02-07T16:51:32.198Z,6.51
2019-02-07T16:54:36.919Z,6.41
2019-02-07T16:57:42.468Z,6.33
2019-02-07T17:00:47.195Z,6.25
2019-02-07T17:03:51.616Z,6.16
2019-02-07T17:06:56.050Z,6.12
2019-02-07T17:10:00.900Z,6.08
2019-02-07T17:13:11.908Z,6.08
2019-02-07T17:16:16.682Z,5.94
2019-02-07T17:19:21.418Z,5.85
2019-02-07T17:22:26.147Z,5.77
2019-02-07T17:25:32.988Z,5.72
2019-02-07T17:28:37.648Z,5.60
2019-02-07T17:31:42.078Z,5.56
2019-02-07T17:34:46.807Z,5.53
2019-02-07T17:37:51.744Z,5.48
2019-02-07T17:40:56.180Z,5.68
2019-02-07T17:44:00.896Z,5.68
2019-02-07T17:47:05.733Z,5.66
2019-02-07T17:50:23.872Z,5.65
2019-02-07T17:53:28.302Z,5.66
2019-02-07T17:56:32.734Z,5.71
2019-02-07T17:59:37.163Z,5.77
2019-02-07T18:02:41.601Z,5.77
2019-02-07T18:05:46.101Z,5.76
2019-02-07T18:08:50.526Z,5.76
2019-02-07T18:11:54.954Z,5.77
2019-02-07T18:14:59.387Z,5.74
2019-02-07T18:18:04.509Z,5.69
2019-02-07T18:21:08.958Z,5.70
2019-02-07T18:24:13.392Z,5.72
2019-02-07T18:27:17.820Z,5.67
2019-02-07T18:30:23.594Z,5.57
2019-02-07T18:33:28.021Z,5.61
2019-02-07T18:36:32.783Z,5.58
2019-02-07T18:39:37.520Z,5.58
2019-02-07T18:42:41.962Z,5.63
2019-02-07T18:45:46.399Z,5.48
2019-02-07T18:48:50.831Z,5.43
2019-02-07T18:51:55.288Z,5.36
2019-02-07T18:54:59.697Z,5.20
2019-02-07T18:58:04.943Z,5.12
2019-02-07T19:01:09.463Z,4.96
2019-02-07T19:04:14.136Z,4.80
2019-02-07T19:07:18.576Z,4.79
2019-02-07T19:10:26.363Z,4.73
2019-02-07T19:13:30.789Z,4.77
2019-02-07T19:16:35.522Z,4.75
2019-02-07T19:19:39.948Z,4.78
2019-02-07T19:22:44.386Z,4.74
2019-02-07T19:25:49.097Z,4.78
2019-02-07T19:28:53.517Z,4.80
2019-02-07T19:31:58.425Z,4.78
2019-02-07T19:35:02.862Z,4.79
2019-02-07T19:38:07.353Z,4.85
2019-02-07T19:41:12.438Z,4.81
2019-02-07T19:44:16.873Z,4.72
2019-02-07T19:47:21.311Z,4.81
2019-02-07T19:50:28.029Z,4.82
2019-02-07T19:53:32.808Z,4.81
2019-02-07T19:56:37.241Z,4.72
2019-02-07T19:59:41.961Z,4.66
2019-02-07T20:02:46.465Z,4.68
2019-02-07T20:05:50.899Z,4.59
2019-02-07T20:08:56.045Z,4.46
2019-02-07T20:12:00.785Z,4.36
2019-02-07T20:15:12.645Z,4.35
2019-02-07T20:18:17.086Z,4.26
2019-02-07T20:21:21.524Z,4.30
2019-02-07T20:24:26.013Z,4.32
2019-02-07T20:27:30.880Z,4.44
2019-02-07T20:30:44.405Z,4.54
2019-02-07T20:33:49.147Z,4.46
2019-02-07T20:36:53.876Z,4.48
2019-02-07T20:39:58.299Z,4.44
2019-02-07T20:43:03.031Z,4.43
2019-02-07T20:46:07.804Z,4.42
2019-02-07T20:49:12.261Z,4.37
2019-02-07T20:52:16.691Z,4.30
2019-02-07T20:55:22.026Z,4.30
2019-02-07T20:58:26.468Z,4.23
2019-02-07T21:01:30.981Z,4.20
2019-02-07T21:04:35.421Z,4.21
2019-02-07T21:07:40.160Z,4.22
2019-02-07T21:10:44.584Z,4.22
2019-02-07T21:13:49.018Z,4.19
2019-02-07T21:16:53.452Z,4.25
2019-02-07T21:19:57.872Z,4.42
2019-02-07T21:23:02.578Z,4.38
2019-02-07T21:26:07.061Z,4.40
2019-02-07T21:29:11.738Z,4.49
2019-02-07T21:32:16.249Z,4.49
2019-02-07T21:35:22.286Z,4.52
2019-02-07T21:38:27.051Z,4.48
2019-02-07T21:41:32.091Z,4.39
2019-02-07T21:44:36.587Z,4.48
2019-02-07T21:47:41.021Z,4.62
2019-02-07T21:50:46.081Z,4.57
2019-02-07T21:53:50.857Z,4.54
2019-02-07T21:56:55.545Z,4.47
2019-02-07T22:00:01.026Z,4.57
2019-02-07T22:03:09.143Z,4.62
2019-02-07T22:06:13.831Z,4.51
2019-02-07T22:09:18.561Z,4.58
2019-02-07T22:12:22.987Z,4.71
2019-02-07T22:15:29.040Z,4.68
2019-02-07T22:18:33.783Z,4.75
2019-02-07T22:21:38.276Z,4.75
2019-02-07T22:24:43.045Z,4.74
2019-02-07T22:27:47.977Z,4.77
2019-02-07T22:30:52.451Z,4.70
2019-02-07T22:33:57.225Z,4.72
2019-02-07T22:37:01.959Z,4.73
2019-02-07T22:40:11.119Z,4.79
2019-02-07T22:43:15.554Z,4.81
2019-02-07T22:46:19.981Z,4.68
2019-02-07T22:49:24.418Z,4.61
2019-02-07T22:52:28.868Z,4.61
2019-02-07T22:55:33.304Z,4.71
2019-02-07T22:58:38.039Z,4.65
2019-02-07T23:01:44.674Z,4.65
2019-02-07T23:04:49.172Z,4.60
2019-02-07T23:07:53.892Z,4.63
2019-02-07T23:10:58.312Z,4.82
2019-02-07T23:14:02.818Z,4.95
2019-02-07T23:17:07.970Z,4.98
2019-02-07T23:20:12.647Z,5.14
2019-02-07T23:23:17.097Z,5.38
2019-02-07T23:26:21.524Z,5.50
2019-02-07T23:29:25.973Z,5.59
2019-02-07T23:32:30.695Z,5.73
2019-02-07T23:35:35.144Z,5.78
2019-02-07T23:38:39.648Z,5.78
2019-02-07T23:41:44.073Z,5.76
2019-02-07T23:44:48.504Z,5.81
2019-02-07T23:47:53.227Z,5.73
2019-02-07T23:50:57.952Z,5.69
2019-02-07T23:54:02.389Z,5.66
2019-02-07T23:57:07.109Z,5.58
